.
Local / CommonContents

Fort Wayne - NE Ind.
U N D E R   C O N S T R U C T I O N

Northern Indiana (IWX) Radar

Latest IWX NEXRAD
Base Reflectivity



Latest IWX NEXRAD
Base Velocity

Indiana-Ohio Visible Satellite

For infrared and water vapor imagery, see Great Lakes - Midwest.

Current Conditions

Recent report from the Fort Wayne International Airport

Sep 22, 2018 - 03:54 PM EDT / 2018.09.22 1954 UTC


The skies are mostly cloudy. The temperature is 64.0 F (17.8 C) and the dew point is 51.1 F (10.6 C), giving a relative humidity of 62%. The barometric pressure is 30.24 in. Hg (1024 hPa). The wind is from the NNE (030 degrees) at 9 MPH (8 KT), and the visibility is 10 mile(s).

KFWA 221954Z 03008KT 10SM FEW030 SCT065 BKN210 18/11 A3024 RMK AO2 SLP240 T01780106
CoCoRaHS
IN-AL-39
A2 Web Hosting
Creative Commons License
GoDaddy
search engine by freefind advanced

loaded 2018-09-22 16:23:31 • last modified 2015-05-28 14:58:18
Privacy PolicyDisclaimer
• wx.awcolley.com is powered by PmWiki v.2002016 •
• all content (unless otherwise noted) © 2018 A W Colley